createdAt,value
2022-10-09T00:01:03.406Z,100038.34
2022-10-09T00:03:31.502Z,100047.28
2022-10-09T00:05:59.405Z,100047.88
2022-10-09T00:08:27.509Z,100049.59
2022-10-09T00:10:55.771Z,100049.38
2022-10-09T00:13:23.754Z,100037.91
2022-10-09T00:15:53.367Z,100037.13
2022-10-09T00:18:21.248Z,100031.84
2022-10-09T00:20:49.193Z,100034.09
2022-10-09T00:23:18.438Z,100036.31
2022-10-09T00:25:54.379Z,100041.59
2022-10-09T00:28:22.972Z,100038.88
2022-10-09T00:30:51.626Z,100029.34
2022-10-09T00:33:21.699Z,100033.34
2022-10-09T00:35:50.458Z,100042.94
2022-10-09T00:38:18.441Z,100041.81
2022-10-09T00:40:46.399Z,100040.53
2022-10-09T00:43:18.353Z,100035.00
2022-10-09T00:45:51.270Z,100037.13
2022-10-09T00:48:21.720Z,100038.13
2022-10-09T00:50:53.895Z,100034.53
2022-10-09T00:53:25.683Z,100040.81
2022-10-09T00:55:54.155Z,100040.06
2022-10-09T00:58:22.955Z,100031.56
2022-10-09T01:00:51.125Z,100031.00
2022-10-09T01:03:20.511Z,100031.44
2022-10-09T01:05:59.657Z,100030.00
2022-10-09T01:08:32.012Z,100026.84
2022-10-09T01:11:08.587Z,100031.69
2022-10-09T01:13:44.029Z,100034.94
2022-10-09T01:16:23.868Z,100020.56
2022-10-09T01:18:59.406Z,100030.63
2022-10-09T01:21:33.088Z,100030.78
2022-10-09T01:24:16.103Z,100028.78
2022-10-09T01:27:04.416Z,100021.81
2022-10-09T01:29:37.325Z,100035.66
2022-10-09T01:32:06.775Z,100028.91
2022-10-09T01:34:34.975Z,100019.75
2022-10-09T01:37:04.589Z,100024.00
2022-10-09T01:39:35.202Z,100024.91
2022-10-09T01:42:05.843Z,100026.66
2022-10-09T01:44:34.752Z,100030.53
2022-10-09T01:47:04.566Z,100024.16
2022-10-09T01:49:40.643Z,100023.25
2022-10-09T01:52:18.116Z,100019.50
2022-10-09T01:54:57.245Z,100017.63
2022-10-09T01:57:34.018Z,100021.44
2022-10-09T02:00:05.213Z,100016.19
2022-10-09T02:02:42.093Z,100005.66
2022-10-09T02:05:12.475Z,100004.31
2022-10-09T02:07:41.057Z,100006.31
2022-10-09T02:10:10.462Z,99999.81
2022-10-09T02:12:44.522Z,99990.75
2022-10-09T02:15:13.376Z,99995.09
2022-10-09T02:17:47.579Z,99999.47
2022-10-09T02:20:21.724Z,100000.09
2022-10-09T02:22:50.751Z,99995.81
2022-10-09T02:25:19.873Z,100003.78
2022-10-09T02:27:49.352Z,99998.50
2022-10-09T02:30:19.081Z,99995.00
2022-10-09T02:32:47.263Z,99998.72
2022-10-09T02:35:15.508Z,100002.19
2022-10-09T02:37:43.375Z,99994.97
2022-10-09T02:40:12.316Z,99993.69
2022-10-09T02:42:40.211Z,100005.00
2022-10-09T02:45:11.119Z,100001.66
2022-10-09T02:47:38.987Z,99992.88
2022-10-09T02:50:08.191Z,100005.00
2022-10-09T02:52:36.135Z,99991.66
2022-10-09T02:55:04.283Z,99991.59
2022-10-09T02:57:32.237Z,99998.91
2022-10-09T03:00:00.020Z,99997.91
2022-10-09T03:02:29.494Z,99994.28
2022-10-09T03:04:57.381Z,99996.94
2022-10-09T03:07:25.216Z,100003.94
2022-10-09T03:09:53.101Z,99995.50
2022-10-09T03:12:22.118Z,100003.00
2022-10-09T03:14:50.035Z,100002.28
2022-10-09T03:17:17.827Z,100007.69
2022-10-09T03:19:47.008Z,100004.31
2022-10-09T03:22:14.757Z,99993.41
2022-10-09T03:24:42.520Z,100001.41
2022-10-09T03:27:10.255Z,99992.59
2022-10-09T03:29:38.020Z,99989.84
2022-10-09T03:32:05.829Z,99991.31
2022-10-09T03:34:33.698Z,99994.78
2022-10-09T03:37:02.862Z,99997.25
2022-10-09T03:39:30.772Z,99994.88
2022-10-09T03:41:58.939Z,99993.41
2022-10-09T03:44:26.677Z,99996.09
2022-10-09T03:46:55.237Z,100001.06
2022-10-09T03:49:23.118Z,100002.47
2022-10-09T03:51:50.988Z,100003.75
2022-10-09T03:54:20.193Z,100005.66
2022-10-09T03:56:48.038Z,100011.41
2022-10-09T03:59:15.876Z,100008.41
2022-10-09T04:01:43.733Z,100016.34
2022-10-09T04:04:11.494Z,100002.72
2022-10-09T04:06:39.376Z,100010.94
2022-10-09T04:09:07.180Z,100004.66
2022-10-09T04:11:36.350Z,100002.69
2022-10-09T04:14:04.820Z,100007.31
2022-10-09T04:16:32.657Z,100012.09
2022-10-09T04:19:00.517Z,100016.06
2022-10-09T04:21:28.344Z,100015.06
2022-10-09T04:23:56.130Z,100020.16
2022-10-09T04:26:24.316Z,100021.22
2022-10-09T04:28:53.704Z,100006.19
2022-10-09T04:31:21.635Z,100006.25
2022-10-09T04:33:49.479Z,100016.19
2022-10-09T04:36:17.260Z,100010.88
2022-10-09T04:38:45.060Z,100007.72
2022-10-09T04:41:13.035Z,99999.63
2022-10-09T04:43:40.878Z,100010.31
2022-10-09T04:46:13.030Z,100008.34
2022-10-09T04:48:41.919Z,100001.94
2022-10-09T04:51:10.464Z,99999.50
2022-10-09T04:53:39.160Z,100005.19
2022-10-09T04:56:09.962Z,100006.88
2022-10-09T04:58:40.551Z,99996.28
2022-10-09T05:01:11.460Z,99994.13
2022-10-09T05:03:39.512Z,99999.41
2022-10-09T05:06:09.853Z,100006.38
2022-10-09T05:08:38.685Z,99999.53
2022-10-09T05:11:08.373Z,100000.84
2022-10-09T05:13:38.418Z,100020.66
2022-10-09T05:16:08.658Z,100018.88
2022-10-09T05:18:43.075Z,100016.59
2022-10-09T05:21:11.279Z,100018.44
2022-10-09T05:23:39.135Z,100014.13
2022-10-09T05:26:09.438Z,100016.22
2022-10-09T05:28:37.675Z,100019.09
2022-10-09T05:31:06.967Z,100035.84
2022-10-09T05:33:35.226Z,100013.22
2022-10-09T05:36:06.286Z,100020.63
2022-10-09T05:38:34.992Z,100026.38
2022-10-09T05:41:05.284Z,100024.09
2022-10-09T05:43:35.891Z,100021.16
2022-10-09T05:46:08.642Z,100013.72
2022-10-09T05:48:37.069Z,100016.53
2022-10-09T05:51:11.545Z,100022.22
2022-10-09T05:53:40.024Z,100017.59
2022-10-09T05:56:16.298Z,100019.31
2022-10-09T05:58:45.463Z,100016.34
2022-10-09T06:01:13.291Z,100021.84
2022-10-09T06:03:41.422Z,100027.50
2022-10-09T06:06:10.811Z,100019.72
2022-10-09T06:08:39.426Z,100031.56
2022-10-09T06:11:11.969Z,100031.31
2022-10-09T06:13:39.959Z,100020.91
2022-10-09T06:16:08.638Z,100030.69
2022-10-09T06:18:36.501Z,100032.06
2022-10-09T06:21:04.870Z,100034.63
2022-10-09T06:23:34.814Z,100033.91
2022-10-09T06:26:06.146Z,100027.16
2022-10-09T06:28:35.286Z,100032.72
2022-10-09T06:31:04.001Z,100024.09
2022-10-09T06:33:33.269Z,100030.84
2022-10-09T06:36:09.828Z,100021.31
2022-10-09T06:38:40.172Z,100029.69
2022-10-09T06:41:09.987Z,100026.63
2022-10-09T06:43:38.426Z,100024.59
2022-10-09T06:46:08.196Z,100033.97
2022-10-09T06:48:38.426Z,100033.34
2022-10-09T06:51:08.470Z,100036.88
2022-10-09T06:53:37.430Z,100046.16
2022-10-09T06:56:08.628Z,100048.09
2022-10-09T06:58:36.572Z,100052.34
2022-10-09T07:01:06.521Z,100051.97
2022-10-09T07:03:34.741Z,100049.91
2022-10-09T07:06:10.766Z,100055.84
2022-10-09T07:08:39.347Z,100053.81
2022-10-09T07:11:13.300Z,100057.53
2022-10-09T07:13:41.855Z,100055.88
2022-10-09T07:16:10.581Z,100051.66
2022-10-09T07:18:39.322Z,100057.66
2022-10-09T07:21:09.520Z,100050.44
2022-10-09T07:23:37.811Z,100049.41
2022-10-09T07:26:12.951Z,100050.97
2022-10-09T07:28:41.577Z,100055.06
2022-10-09T07:31:10.042Z,100041.53
2022-10-09T07:33:38.347Z,100045.88
2022-10-09T07:36:07.876Z,100040.44
2022-10-09T07:38:35.869Z,100042.13
2022-10-09T07:41:06.912Z,100041.31
2022-10-09T07:43:37.974Z,100039.44
2022-10-09T07:46:07.784Z,100041.91
2022-10-09T07:48:36.380Z,100031.72
2022-10-09T07:51:09.941Z,100034.47
2022-10-09T07:53:38.769Z,100041.00
2022-10-09T07:56:07.716Z,100033.69
2022-10-09T07:58:36.873Z,100036.00
2022-10-09T08:01:06.111Z,100032.09
2022-10-09T08:03:35.179Z,100032.31
2022-10-09T08:06:03.523Z,100029.91
2022-10-09T08:08:31.427Z,100028.47
2022-10-09T08:10:59.299Z,100026.34
2022-10-09T08:13:27.148Z,100036.31
2022-10-09T08:15:59.464Z,100028.13
2022-10-09T08:18:27.479Z,100018.34
2022-10-09T08:20:59.786Z,100019.63
2022-10-09T08:23:28.043Z,100020.66
2022-10-09T08:25:56.201Z,100016.97
2022-10-09T08:28:24.487Z,100015.75
2022-10-09T08:30:52.612Z,100010.47
2022-10-09T08:33:23.451Z,100005.88
2022-10-09T08:35:51.880Z,100002.88
2022-10-09T08:38:45.058Z,99989.41
2022-10-09T08:41:12.632Z,100000.16
2022-10-09T08:43:46.341Z,99998.56
2022-10-09T08:46:21.736Z,99992.53
2022-10-09T08:48:53.388Z,99996.94
2022-10-09T08:51:25.291Z,99992.16
2022-10-09T08:54:00.645Z,100001.16
2022-10-09T08:56:31.399Z,99997.97
2022-10-09T08:58:59.986Z,99997.84
2022-10-09T09:01:37.369Z,99995.03
2022-10-09T09:04:42.189Z,99996.09
2022-10-09T09:07:20.708Z,99999.13
2022-10-09T09:09:57.762Z,100004.19
2022-10-09T09:12:34.144Z,100002.78
2022-10-09T09:15:19.513Z,99995.53
2022-10-09T09:17:55.961Z,99993.41
2022-10-09T09:20:28.605Z,99992.44
2022-10-09T09:34:35.713Z,99986.09
2022-10-09T09:37:03.707Z,99988.53
2022-10-09T09:42:24.366Z,99977.47
2022-10-09T09:44:59.579Z,99963.19
2022-10-09T09:47:34.189Z,99975.25
2022-10-09T09:50:06.194Z,99969.66
2022-10-09T09:52:37.590Z,99966.50
2022-10-09T09:55:06.924Z,99959.84
2022-10-09T09:57:37.746Z,99957.97
2022-10-09T10:00:20.944Z,99953.94
2022-10-09T10:02:49.433Z,99956.19
2022-10-09T10:05:23.927Z,99947.63
2022-10-09T10:07:51.953Z,99949.56
2022-10-09T10:10:25.328Z,99948.00
2022-10-09T10:12:57.569Z,99946.34
2022-10-09T10:15:28.248Z,99937.78
2022-10-09T10:18:00.809Z,99932.78
2022-10-09T10:20:32.601Z,99926.13
2022-10-09T10:23:01.819Z,99923.00
2022-10-09T10:25:34.500Z,99915.19
2022-10-09T10:28:07.232Z,99908.63
2022-10-09T10:30:38.716Z,99903.41
2022-10-09T10:33:14.235Z,99898.47
2022-10-09T10:35:44.955Z,99889.84
2022-10-09T10:38:16.460Z,99888.88
2022-10-09T10:40:49.093Z,99881.00
2022-10-09T10:43:29.617Z,99879.50
2022-10-09T10:46:01.032Z,99884.88
2022-10-09T10:48:31.838Z,99878.47
2022-10-09T10:51:09.632Z,99874.31
2022-10-09T10:53:59.393Z,99872.22
2022-10-09T10:56:32.052Z,99868.28
2022-10-09T10:59:20.244Z,99855.91
2022-10-09T11:01:55.015Z,99857.25
2022-10-09T11:04:40.274Z,99859.91
2022-10-09T11:07:21.238Z,99860.47
2022-10-09T11:09:58.764Z,99849.66
2022-10-09T11:12:47.898Z,99839.34
2022-10-09T11:15:21.259Z,99833.47
2022-10-09T11:17:56.118Z,99842.47
2022-10-09T11:20:59.298Z,99836.66
2022-10-09T11:23:40.930Z,99820.13
2022-10-09T11:26:18.444Z,99817.91
2022-10-09T11:28:53.117Z,99817.16
2022-10-09T11:31:28.166Z,99812.41
2022-10-09T11:34:01.691Z,99808.00
2022-10-09T11:36:35.310Z,99803.56
2022-10-09T11:39:07.199Z,99805.19
2022-10-09T11:41:37.026Z,99794.84
2022-10-09T11:44:25.597Z,99796.19
2022-10-09T11:47:02.200Z,99785.44
2022-10-09T11:49:38.801Z,99792.56
2022-10-09T11:52:17.526Z,99784.41
2022-10-09T11:54:46.803Z,99771.66
2022-10-09T11:57:15.656Z,99774.28
2022-10-09T11:59:43.633Z,99767.75
2022-10-09T12:02:25.353Z,99761.25
2022-10-09T12:04:55.136Z,99766.44
2022-10-09T12:07:29.288Z,99765.34
2022-10-09T12:10:06.182Z,99750.25
2022-10-09T12:12:37.763Z,99740.91
2022-10-09T12:15:24.311Z,99742.28
2022-10-09T12:17:52.264Z,99738.31
2022-10-09T12:20:22.391Z,99732.19
2022-10-09T12:23:14.233Z,99729.06
2022-10-09T12:25:46.843Z,99717.88
2022-10-09T12:28:26.962Z,99718.81
2022-10-09T12:30:56.571Z,99715.69
2022-10-09T12:33:27.285Z,99715.81
2022-10-09T12:36:06.310Z,99700.66
2022-10-09T12:38:34.190Z,99701.03
2022-10-09T12:41:07.015Z,99708.13
2022-10-09T12:43:36.423Z,99699.50
2022-10-09T12:46:05.169Z,99697.13
2022-10-09T12:48:39.833Z,99692.72
2022-10-09T12:51:16.241Z,99686.88
2022-10-09T12:53:48.227Z,99685.47
2022-10-09T12:56:22.372Z,99676.47
2022-10-09T12:58:50.674Z,99670.50
2022-10-09T13:01:19.112Z,99668.03
2022-10-09T13:03:55.447Z,99662.59
2022-10-09T13:06:25.803Z,99657.13
2022-10-09T13:08:55.082Z,99648.03
2022-10-09T13:11:32.423Z,99648.25
2022-10-09T13:14:00.871Z,99649.97
2022-10-09T13:16:40.719Z,99640.59
2022-10-09T13:19:25.377Z,99644.22
2022-10-09T13:22:20.884Z,99635.03
2022-10-09T13:24:53.073Z,99638.00
2022-10-09T13:27:26.270Z,99618.59
2022-10-09T13:29:54.651Z,99618.41
2022-10-09T13:32:24.196Z,99624.22
2022-10-09T13:34:54.979Z,99617.75
2022-10-09T13:37:24.539Z,99610.88
2022-10-09T13:39:53.427Z,99601.44
2022-10-09T13:42:25.154Z,99609.81
2022-10-09T13:44:53.120Z,99608.47
2022-10-09T13:47:24.437Z,99602.88
2022-10-09T13:49:52.779Z,99604.66
2022-10-09T13:52:20.698Z,99603.50
2022-10-09T13:54:48.557Z,99595.22
2022-10-09T13:57:16.403Z,99591.03
2022-10-09T13:59:45.729Z,99581.72
2022-10-09T14:02:13.889Z,99587.28
2022-10-09T14:04:42.044Z,99577.06
2022-10-09T14:07:10.000Z,99571.16
2022-10-09T14:09:38.045Z,99564.84
2022-10-09T14:12:05.977Z,99566.63
2022-10-09T14:14:33.929Z,99570.75
2022-10-09T14:17:03.136Z,99571.47
2022-10-09T14:19:30.987Z,99570.69
2022-10-09T14:21:59.486Z,99562.91
2022-10-09T14:24:27.404Z,99563.75
2022-10-09T14:26:55.267Z,99556.81
2022-10-09T14:29:23.205Z,99555.19
2022-10-09T14:31:51.346Z,99546.88
2022-10-09T14:34:20.719Z,99542.28
2022-10-09T14:36:48.880Z,99542.25
2022-10-09T14:39:17.155Z,99534.59
2022-10-09T14:41:45.835Z,99533.91
2022-10-09T14:44:13.919Z,99535.31
2022-10-09T14:46:41.838Z,99533.69
2022-10-09T14:49:09.712Z,99532.19
2022-10-09T14:51:40.421Z,99527.84
2022-10-09T14:54:09.781Z,99524.63
2022-10-09T14:56:37.834Z,99521.66
2022-10-09T14:59:06.374Z,99520.94
2022-10-09T15:01:35.382Z,99518.63
2022-10-09T15:04:04.274Z,99516.72
2022-10-09T15:06:32.268Z,99510.31
2022-10-09T15:09:05.390Z,99507.44
2022-10-09T15:11:34.785Z,99509.00
2022-10-09T15:14:02.915Z,99519.72
2022-10-09T15:16:31.072Z,99503.09
2022-10-09T15:18:59.139Z,99504.16
2022-10-09T15:21:29.240Z,99496.81
2022-10-09T15:23:58.869Z,99502.63
2022-10-09T15:26:29.645Z,99498.53
2022-10-09T15:28:57.837Z,99492.88
2022-10-09T15:31:27.883Z,99492.56
2022-10-09T15:33:57.404Z,99483.66
2022-10-09T15:36:26.170Z,99488.50
2022-10-09T15:38:54.205Z,99483.63
2022-10-09T15:41:25.031Z,99484.38
2022-10-09T15:43:56.521Z,99486.75
2022-10-09T15:46:25.163Z,99492.78
2022-10-09T15:48:53.496Z,99492.47
2022-10-09T15:51:22.351Z,99483.22
2022-10-09T15:53:52.156Z,99486.09
2022-10-09T15:56:22.410Z,99479.34
2022-10-09T15:58:51.066Z,99486.13
2022-10-09T16:01:21.438Z,99481.34
2022-10-09T16:03:49.693Z,99482.81
2022-10-09T16:06:20.358Z,99480.28
2022-10-09T16:08:48.887Z,99478.91
2022-10-09T16:11:21.783Z,99471.72
2022-10-09T16:13:53.147Z,99480.81
2022-10-09T16:16:25.047Z,99470.97
2022-10-09T16:18:53.425Z,99482.16
2022-10-09T16:21:23.993Z,99481.03
2022-10-09T16:23:57.297Z,99481.56
2022-10-09T16:26:25.440Z,99478.56
2022-10-09T16:28:53.380Z,99475.66
2022-10-09T16:31:24.706Z,99479.81
2022-10-09T16:33:52.794Z,99476.94
2022-10-09T16:36:20.640Z,99478.00
2022-10-09T16:38:48.842Z,99484.44
2022-10-09T16:41:19.644Z,99487.44
2022-10-09T16:43:48.994Z,99491.53
2022-10-09T16:46:20.092Z,99487.44
2022-10-09T16:48:50.352Z,99479.69
2022-10-09T16:51:21.911Z,99490.06
2022-10-09T16:53:50.633Z,99483.06
2022-10-09T16:56:21.125Z,99484.16
2022-10-09T16:58:48.864Z,99483.19
2022-10-09T17:01:17.395Z,99475.97
2022-10-09T17:03:45.410Z,99481.25
2022-10-09T17:06:19.626Z,99479.16
2022-10-09T17:08:47.600Z,99478.91
2022-10-09T17:11:17.423Z,99479.03
2022-10-09T17:13:45.798Z,99478.84
2022-10-09T17:16:18.270Z,99474.47
2022-10-09T17:18:46.859Z,99468.09
2022-10-09T17:21:17.986Z,99474.97
2022-10-09T17:23:46.733Z,99474.72
2022-10-09T17:26:16.816Z,99463.16
2022-10-09T17:28:45.664Z,99470.59
2022-10-09T17:31:16.847Z,99467.31
2022-10-09T17:33:48.174Z,99465.81
2022-10-09T17:36:20.681Z,99465.63
2022-10-09T17:38:49.785Z,99455.88
2022-10-09T17:41:19.565Z,99460.78
2022-10-09T17:43:47.424Z,99460.41
2022-10-09T17:46:16.024Z,99454.88
2022-10-09T17:48:48.301Z,99457.25
2022-10-09T17:51:19.895Z,99461.13
2022-10-09T17:53:48.110Z,99455.84
2022-10-09T17:56:16.533Z,99455.69
2022-10-09T17:58:47.320Z,99457.13
2022-10-09T18:01:16.314Z,99447.59
2022-10-09T18:03:44.995Z,99455.53
2022-10-09T18:06:14.558Z,99452.88
2022-10-09T18:08:44.471Z,99456.47
2022-10-09T18:11:14.782Z,99451.50
2022-10-09T18:13:43.415Z,99443.19
2022-10-09T18:16:14.440Z,99447.13
2022-10-09T18:18:42.420Z,99446.69
2022-10-09T18:21:16.860Z,99457.03
2022-10-09T18:23:46.747Z,99456.25
2022-10-09T18:26:17.101Z,99456.50
2022-10-09T18:28:48.208Z,99455.16
2022-10-09T18:31:19.181Z,99446.47
2022-10-09T18:33:47.576Z,99450.97
2022-10-09T18:36:19.853Z,99442.31
2022-10-09T18:38:50.988Z,99448.03
2022-10-09T18:41:20.271Z,99437.66
2022-10-09T18:43:48.891Z,99441.34
2022-10-09T18:46:18.690Z,99431.91
2022-10-09T18:48:47.184Z,99433.66
2022-10-09T18:51:17.505Z,99433.09
2022-10-09T18:53:52.633Z,99430.44
2022-10-09T18:56:22.276Z,99435.34
2022-10-09T18:58:51.955Z,99439.53
2022-10-09T19:01:20.171Z,99427.44
2022-10-09T19:03:50.103Z,99426.06
2022-10-09T19:06:18.681Z,99416.41
2022-10-09T19:08:47.359Z,99407.78
2022-10-09T19:11:16.882Z,99420.50
2022-10-09T19:13:45.718Z,99414.09
2022-10-09T19:16:13.692Z,99409.19
2022-10-09T19:18:41.601Z,99406.31
2022-10-09T19:21:13.382Z,99409.31
2022-10-09T19:23:41.312Z,99409.09
2022-10-09T19:26:09.214Z,99409.63
2022-10-09T19:28:39.285Z,99411.94
2022-10-09T19:31:08.566Z,99406.16
2022-10-09T19:33:37.818Z,99407.66
2022-10-09T19:36:06.541Z,99405.03
2022-10-09T19:38:34.495Z,99408.00
2022-10-09T19:41:04.961Z,99402.38
2022-10-09T19:43:32.970Z,99401.97
2022-10-09T19:46:07.852Z,99402.53
2022-10-09T19:48:36.404Z,99401.16
2022-10-09T19:51:07.406Z,99403.34
2022-10-09T19:53:35.849Z,99395.94
2022-10-09T19:56:09.336Z,99394.72
2022-10-09T19:58:40.563Z,99391.44
2022-10-09T20:01:10.994Z,99389.66
2022-10-09T20:03:38.795Z,99390.09
2022-10-09T20:06:08.550Z,99393.53
2022-10-09T20:08:36.560Z,99388.06
2022-10-09T20:11:06.728Z,99393.88
2022-10-09T20:13:37.639Z,99395.66
2022-10-09T20:16:08.425Z,99389.69
2022-10-09T20:18:39.428Z,99392.44
2022-10-09T20:21:07.473Z,99384.38
2022-10-09T20:23:35.318Z,99385.25
2022-10-09T20:26:05.596Z,99388.22
2022-10-09T20:28:34.589Z,99382.81
2022-10-09T20:31:06.387Z,99378.41
2022-10-09T20:33:34.780Z,99384.25
2022-10-09T20:36:04.966Z,99383.53
2022-10-09T20:38:32.875Z,99372.06
2022-10-09T20:41:04.683Z,99367.47
2022-10-09T20:43:32.473Z,99368.09
2022-10-09T20:46:00.318Z,99358.41
2022-10-09T20:48:28.165Z,99363.88
2022-10-09T20:50:56.017Z,99356.06
2022-10-09T20:53:25.188Z,99355.56
2022-10-09T20:55:53.066Z,99352.78
2022-10-09T20:58:20.880Z,99359.81
2022-10-09T21:00:48.702Z,99366.38
2022-10-09T21:03:16.656Z,99355.78
2022-10-09T21:05:44.888Z,99366.91
2022-10-09T21:08:12.793Z,99365.47
2022-10-09T21:10:45.018Z,99360.94
2022-10-09T21:13:13.256Z,99361.84
2022-10-09T21:15:44.965Z,99360.47
2022-10-09T21:18:13.420Z,99370.59
2022-10-09T21:20:43.770Z,99368.88
2022-10-09T21:23:13.591Z,99372.16
2022-10-09T21:25:49.911Z,99366.59
2022-10-09T21:28:18.280Z,99370.72
2022-10-09T21:30:46.210Z,99370.94
2022-10-09T21:33:14.691Z,99362.56
2022-10-09T21:35:44.890Z,99367.09
2022-10-09T21:38:14.273Z,99360.03
2022-10-09T21:40:42.894Z,99361.41
2022-10-09T21:43:12.187Z,99360.13
2022-10-09T21:45:41.263Z,99356.72
2022-10-09T21:48:09.649Z,99355.81
2022-10-09T21:50:37.581Z,99356.00
2022-10-09T21:53:05.798Z,99356.63
2022-10-09T21:55:33.771Z,99343.16
2022-10-09T21:58:01.633Z,99352.91
2022-10-09T22:00:31.035Z,99345.41
2022-10-09T22:02:58.895Z,99354.13
2022-10-09T22:05:26.795Z,99347.94
2022-10-09T22:07:54.622Z,99348.97
2022-10-09T22:10:22.489Z,99345.66
2022-10-09T22:12:50.558Z,99338.34
2022-10-09T22:15:18.664Z,99345.13
2022-10-09T22:17:47.927Z,99340.16
2022-10-09T22:20:15.744Z,99349.34
2022-10-09T22:22:43.675Z,99342.22
2022-10-09T22:25:11.778Z,99329.38
2022-10-09T22:27:39.667Z,99334.03
2022-10-09T22:30:09.059Z,99328.50
2022-10-09T22:32:36.926Z,99329.19
2022-10-09T22:35:06.947Z,99323.69
2022-10-09T22:37:34.823Z,99323.63
2022-10-09T22:40:02.910Z,99321.19
2022-10-09T22:42:30.769Z,99327.81
2022-10-09T22:44:58.632Z,99322.91
2022-10-09T22:47:26.627Z,99322.81
2022-10-09T22:49:54.418Z,99324.41
2022-10-09T22:52:23.670Z,99330.94
2022-10-09T22:54:51.526Z,99331.78
2022-10-09T22:57:19.628Z,99326.31
2022-10-09T22:59:47.690Z,99326.69
2022-10-09T23:02:15.661Z,99325.88
2022-10-09T23:04:43.514Z,99325.13
2022-10-09T23:07:11.349Z,99316.81
2022-10-09T23:09:40.909Z,99315.09
2022-10-09T23:12:08.764Z,99318.59
2022-10-09T23:14:36.696Z,99317.28
2022-10-09T23:17:04.661Z,99313.09
2022-10-09T23:19:33.932Z,99312.50
2022-10-09T23:22:01.713Z,99319.78
2022-10-09T23:24:29.736Z,99316.44
2022-10-09T23:26:58.925Z,99319.69
2022-10-09T23:29:26.784Z,99325.41
2022-10-09T23:31:54.633Z,99319.50
2022-10-09T23:34:22.512Z,99325.44
2022-10-09T23:36:50.391Z,99319.00
2022-10-09T23:39:18.260Z,99310.44
2022-10-09T23:41:46.134Z,99313.28
2022-10-09T23:44:17.812Z,99307.91
2022-10-09T23:46:49.199Z,99311.19
2022-10-09T23:49:17.210Z,99305.75
2022-10-09T23:51:45.075Z,99307.59
2022-10-09T23:54:12.932Z,99303.09
2022-10-09T23:56:40.819Z,99308.19
2022-10-09T23:59:08.688Z,99302.94
